createdAt,value
2018-10-03T00:04:36.108Z,19.80
2018-10-03T00:09:39.499Z,19.80
2018-10-03T00:14:42.948Z,19.80
2018-10-03T00:19:46.150Z,19.80
2018-10-03T00:24:49.705Z,19.80
2018-10-03T00:29:53.016Z,19.80
2018-10-03T00:34:56.583Z,19.80
2018-10-03T00:40:00.240Z,19.80
2018-10-03T00:45:03.544Z,19.80
2018-10-03T00:50:06.779Z,19.80
2018-10-03T00:55:10.024Z,19.80
2018-10-03T01:00:13.266Z,19.80
2018-10-03T01:05:16.540Z,19.80
2018-10-03T01:10:19.790Z,19.70
2018-10-03T01:15:23.030Z,19.70
2018-10-03T01:20:26.252Z,19.70
2018-10-03T01:25:29.665Z,19.70
2018-10-03T01:30:32.899Z,19.70
2018-10-03T01:35:36.140Z,19.80
2018-10-03T01:40:39.509Z,19.70
2018-10-03T01:45:43.356Z,19.70
2018-10-03T01:50:46.565Z,19.70
2018-10-03T01:55:49.820Z,19.70
2018-10-03T02:00:53.226Z,19.70
2018-10-03T02:05:56.695Z,19.70
2018-10-03T02:11:00.416Z,19.70
2018-10-03T02:16:04.065Z,19.70
2018-10-03T02:21:07.560Z,19.70
2018-10-03T02:26:10.808Z,19.70
2018-10-03T02:31:14.117Z,19.70
2018-10-03T02:36:17.433Z,19.70
2018-10-03T02:41:20.896Z,19.70
2018-10-03T02:46:24.189Z,19.60
2018-10-03T02:51:27.439Z,19.60
2018-10-03T02:56:31.521Z,19.60
2018-10-03T03:01:34.951Z,19.60
2018-10-03T03:06:38.109Z,19.60
2018-10-03T03:11:42.263Z,19.60
2018-10-03T03:16:46.159Z,19.60
2018-10-03T03:21:49.869Z,19.60
2018-10-03T03:26:53.062Z,19.60
2018-10-03T03:31:56.751Z,19.60
2018-10-03T03:36:59.959Z,19.60
2018-10-03T03:42:03.421Z,19.60
2018-10-03T03:47:06.682Z,19.60
2018-10-03T03:52:09.922Z,19.50
2018-10-03T03:57:13.211Z,19.60
2018-10-03T04:02:16.581Z,19.50
2018-10-03T04:07:19.880Z,19.50
2018-10-03T04:12:23.173Z,19.50
2018-10-03T04:17:26.541Z,19.50
2018-10-03T04:22:29.806Z,19.50
2018-10-03T04:27:33.948Z,19.50
2018-10-03T04:32:37.363Z,19.50
2018-10-03T04:37:40.711Z,19.50
2018-10-03T04:42:43.989Z,19.50
2018-10-03T04:47:47.208Z,19.50
2018-10-03T04:52:51.721Z,19.50
2018-10-03T04:57:54.909Z,19.50
2018-10-03T05:02:58.499Z,19.50
2018-10-03T05:08:01.700Z,19.50
2018-10-03T05:13:04.933Z,19.50
2018-10-03T05:18:08.649Z,19.50
2018-10-03T05:23:12.009Z,19.50
2018-10-03T05:28:15.207Z,19.40
2018-10-03T05:33:18.638Z,19.40
2018-10-03T05:38:21.856Z,19.40
2018-10-03T05:43:25.042Z,19.40
2018-10-03T05:48:28.575Z,19.40
2018-10-03T05:53:31.870Z,19.40
2018-10-03T05:58:35.172Z,19.40
2018-10-03T06:03:38.874Z,19.40
2018-10-03T06:08:42.082Z,19.40
2018-10-03T06:13:45.276Z,19.40
2018-10-03T06:18:48.716Z,19.40
2018-10-03T06:23:51.903Z,19.40
2018-10-03T06:28:55.174Z,19.40
2018-10-03T06:33:58.406Z,19.40
2018-10-03T06:39:01.683Z,19.50
2018-10-03T06:44:04.907Z,19.50
2018-10-03T06:49:08.162Z,19.50
2018-10-03T06:54:11.546Z,19.50
2018-10-03T06:59:14.837Z,19.60
2018-10-03T07:04:18.045Z,19.60
2018-10-03T07:09:21.284Z,19.60
2018-10-03T07:14:24.498Z,19.60
2018-10-03T07:19:27.953Z,19.70
2018-10-03T07:24:31.992Z,19.70
2018-10-03T07:29:35.896Z,19.70
2018-10-03T07:34:39.552Z,19.70
2018-10-03T07:39:43.498Z,19.70
2018-10-03T07:44:47.783Z,19.70
2018-10-03T07:49:51.395Z,19.70
2018-10-03T07:54:56.549Z,19.80
2018-10-03T08:00:00.267Z,19.70
2018-10-03T08:05:04.001Z,19.90
2018-10-03T08:10:07.471Z,19.90
2018-10-03T08:15:11.175Z,20.00
2018-10-03T08:20:14.583Z,20.10
2018-10-03T08:25:18.867Z,20.10
2018-10-03T08:30:22.317Z,20.20
2018-10-03T08:35:25.810Z,20.20
2018-10-03T08:40:29.312Z,20.30
2018-10-03T08:45:33.436Z,20.30
2018-10-03T08:50:36.730Z,20.30
2018-10-03T08:55:40.061Z,20.30
2018-10-03T09:00:43.671Z,20.30
2018-10-03T09:05:47.096Z,20.30
2018-10-03T09:10:50.413Z,20.30
2018-10-03T09:15:54.357Z,20.30
2018-10-03T09:20:57.733Z,20.30
2018-10-03T09:26:01.092Z,20.30
2018-10-03T09:31:04.549Z,20.30
2018-10-03T09:36:08.530Z,20.30
2018-10-03T09:41:14.000Z,20.30
2018-10-03T09:46:18.058Z,20.30
2018-10-03T09:51:21.415Z,20.30
2018-10-03T09:56:24.794Z,20.30
2018-10-03T10:01:29.113Z,20.30
2018-10-03T10:06:33.421Z,20.30
2018-10-03T10:11:37.778Z,20.40
2018-10-03T10:16:41.003Z,20.30
2018-10-03T10:21:44.379Z,20.30
2018-10-03T10:26:47.871Z,20.40
2018-10-03T10:31:51.303Z,20.40
2018-10-03T10:36:54.599Z,20.40
2018-10-03T10:41:58.037Z,20.40
2018-10-03T10:47:01.368Z,20.50
2018-10-03T10:52:05.219Z,20.50
2018-10-03T10:57:10.655Z,20.50
2018-10-03T11:02:14.185Z,20.40
2018-10-03T11:07:18.125Z,20.50
2018-10-03T11:12:21.800Z,20.50
2018-10-03T11:17:25.478Z,20.50
2018-10-03T11:22:29.300Z,20.50
2018-10-03T11:27:32.879Z,20.50
2018-10-03T11:32:36.483Z,20.50
2018-10-03T11:37:39.929Z,20.50
2018-10-03T11:42:43.616Z,20.50
2018-10-03T11:47:46.942Z,20.50
2018-10-03T11:52:50.426Z,20.50
2018-10-03T11:57:53.714Z,20.50
2018-10-03T12:02:57.619Z,20.50
2018-10-03T12:08:01.916Z,20.50
2018-10-03T12:13:05.274Z,20.60
2018-10-03T12:18:09.679Z,20.60
2018-10-03T12:23:13.130Z,20.60
2018-10-03T12:28:16.854Z,20.60
2018-10-03T12:33:20.421Z,20.60
2018-10-03T12:38:23.792Z,20.60
2018-10-03T12:43:27.605Z,20.60
2018-10-03T12:48:31.151Z,20.60
2018-10-03T12:53:34.685Z,20.70
2018-10-03T12:58:38.265Z,20.70
2018-10-03T13:03:41.747Z,20.60
2018-10-03T13:08:45.392Z,20.70
2018-10-03T13:13:48.884Z,20.70
2018-10-03T13:18:52.514Z,20.70
2018-10-03T13:23:56.658Z,20.70
2018-10-03T13:29:00.853Z,20.60
2018-10-03T13:34:05.291Z,20.60
2018-10-03T13:39:10.426Z,20.60
2018-10-03T13:44:14.097Z,20.60
2018-10-03T13:49:17.587Z,20.60
2018-10-03T13:54:21.914Z,20.70
2018-10-03T13:59:25.658Z,20.70
2018-10-03T14:04:29.922Z,20.70
2018-10-03T14:09:35.096Z,20.70
2018-10-03T14:14:39.381Z,20.70
2018-10-03T14:19:42.907Z,20.60
2018-10-03T14:24:46.765Z,20.60
2018-10-03T14:29:50.565Z,20.60
2018-10-03T14:34:55.078Z,20.60
2018-10-03T14:39:58.428Z,20.70
2018-10-03T14:45:02.088Z,20.60
2018-10-03T14:50:05.989Z,20.60
2018-10-03T14:55:09.343Z,20.60
2018-10-03T15:00:12.612Z,20.50
2018-10-03T15:05:16.427Z,20.60
2018-10-03T15:10:20.266Z,20.50
2018-10-03T15:15:24.033Z,20.50
2018-10-03T15:20:27.354Z,19.60
2018-10-03T15:25:31.263Z,19.30
2018-10-03T15:30:34.683Z,19.70
2018-10-03T15:35:38.778Z,19.90
2018-10-03T15:40:42.882Z,20.00
2018-10-03T15:45:46.121Z,20.10
2018-10-03T15:50:49.457Z,20.10
2018-10-03T15:55:52.688Z,20.20
2018-10-03T16:00:56.064Z,20.20
2018-10-03T16:06:01.138Z,20.20
2018-10-03T16:11:04.876Z,20.30
2018-10-03T16:16:08.275Z,20.30
2018-10-03T16:21:11.496Z,20.30
2018-10-03T16:26:14.824Z,20.30
2018-10-03T16:31:19.238Z,20.30
2018-10-03T16:36:23.366Z,20.30
2018-10-03T16:41:26.754Z,20.40
2018-10-03T16:46:32.828Z,20.30
2018-10-03T16:51:36.180Z,20.30
2018-10-03T16:56:40.026Z,20.40
2018-10-03T17:01:43.700Z,20.40
2018-10-03T17:06:47.306Z,20.30
2018-10-03T17:12:07.434Z,20.40
2018-10-03T17:17:11.581Z,20.40
2018-10-03T17:22:15.356Z,20.40
2018-10-03T17:27:18.747Z,20.30
2018-10-03T17:32:22.163Z,20.30
2018-10-03T17:37:26.282Z,20.30
2018-10-03T17:42:29.624Z,20.40
2018-10-03T17:47:33.133Z,20.40
2018-10-03T17:52:36.715Z,20.40
2018-10-03T17:57:40.358Z,20.30
2018-10-03T18:02:44.041Z,20.40
2018-10-03T18:07:47.919Z,20.40
2018-10-03T18:12:51.484Z,20.30
2018-10-03T18:17:54.898Z,20.30
2018-10-03T18:22:58.369Z,20.30
2018-10-03T18:28:01.621Z,20.30
2018-10-03T18:33:05.141Z,20.30
2018-10-03T18:38:08.481Z,20.30
2018-10-03T18:43:12.031Z,20.30
2018-10-03T18:48:15.358Z,20.30
2018-10-03T18:53:18.634Z,20.30
2018-10-03T18:58:22.216Z,20.30
2018-10-03T19:03:25.638Z,20.30
2018-10-03T19:08:29.675Z,20.30
2018-10-03T19:13:33.151Z,20.30
2018-10-03T19:18:36.928Z,20.30
2018-10-03T19:23:40.642Z,20.30
2018-10-03T19:28:54.285Z,20.20
2018-10-03T19:33:58.543Z,20.20
2018-10-03T19:39:04.069Z,20.20
2018-10-03T19:44:08.046Z,20.20
2018-10-03T19:49:12.803Z,20.20
2018-10-03T19:54:17.183Z,20.20
2018-10-03T19:59:20.902Z,20.20
2018-10-03T20:04:24.473Z,20.20
2018-10-03T20:09:28.254Z,20.20
2018-10-03T20:14:32.334Z,20.30
2018-10-03T20:19:36.525Z,20.30
2018-10-03T20:24:40.567Z,20.30
2018-10-03T20:29:44.471Z,20.30
2018-10-03T20:34:48.344Z,20.30
2018-10-03T20:39:51.907Z,20.30
2018-10-03T20:44:55.834Z,20.30
2018-10-03T20:49:59.841Z,20.30
2018-10-03T20:55:04.142Z,20.30
2018-10-03T21:00:07.688Z,20.30
2018-10-03T21:05:11.497Z,20.20
2018-10-03T21:10:15.102Z,20.20
2018-10-03T21:15:18.677Z,20.20
2018-10-03T21:20:22.076Z,20.20
2018-10-03T21:25:25.736Z,20.20
2018-10-03T21:30:29.246Z,20.20
2018-10-03T21:35:32.572Z,20.20
2018-10-03T21:40:36.274Z,20.20
2018-10-03T21:45:39.962Z,20.20
2018-10-03T21:50:43.587Z,20.20
2018-10-03T21:55:46.956Z,20.20
2018-10-03T22:00:55.250Z,20.20
2018-10-03T22:05:58.655Z,20.20
2018-10-03T22:11:02.123Z,20.20
2018-10-03T22:16:06.145Z,20.20
2018-10-03T22:21:09.516Z,20.20
2018-10-03T22:26:12.873Z,20.20
2018-10-03T22:31:16.364Z,20.20
2018-10-03T22:36:19.859Z,20.20
2018-10-03T22:41:23.179Z,20.20
2018-10-03T22:46:26.471Z,20.20
2018-10-03T22:51:29.807Z,20.20
2018-10-03T22:56:33.161Z,20.20
2018-10-03T23:01:36.502Z,20.10
2018-10-03T23:06:40.519Z,20.20
2018-10-03T23:11:44.098Z,20.20
2018-10-03T23:16:47.525Z,20.20
2018-10-03T23:21:51.241Z,20.10
2018-10-03T23:26:55.573Z,20.10
2018-10-03T23:31:59.223Z,20.10
2018-10-03T23:37:03.112Z,20.10
2018-10-03T23:42:06.847Z,20.10
2018-10-03T23:47:10.287Z,20.10
2018-10-03T23:52:13.555Z,20.10
2018-10-03T23:57:17.505Z,20.10
